Ryder, North Dakota
Current Conditions -  °F | °C
As of 11:13 AM on Thursday 18 Dec 2014 (Local Time) from KMOT Reporting Station
Haze Haze  
Wind Chill: 12°   Ceiling: 1000
Heat Index: 20°   Visibility: 6mi
Dew Point: 15°   Wind: 6mph
Humidity: 81%   Direction: 140°SE
Pressure: 30.05"   Gusts: NA
Location:  47.92°N, 101.68°W
Report Text: KMOT 181713Z 14005KT 6SM HZ BKN010 OVC022 M07/M09 A3005 RMK AO2 T10671094
Loading
Personal Weather Stations






























Interactive Weather Map New forecast layout! Learn more

10-Day Weather Forecast

Advertisements
Track Severe Weather on mobile